sensor_id;sensor_type;location;lat;lon;timestamp;P1;durP1;ratioP1;P2;durP2;ratioP2
9665;SDS011;4871;52.004;5.924;2023-05-15T00:00:00;9.20;;;8.20;;
9665;SDS011;4871;52.004;5.924;2023-05-15T00:01:00;9.20;;;8.20;;
9665;SDS011;4871;52.004;5.924;2023-05-15T00:02:00;9.20;;;8.20;;
9665;SDS011;4871;52.004;5.924;2023-05-15T00:03:01;9.20;;;8.20;;
9665;SDS011;4871;52.004;5.924;2023-05-15T00:04:01;9.20;;;8.20;;
9665;SDS011;4871;52.004;5.924;2023-05-15T00:05:00;9.20;;;8.20;;
9665;SDS011;4871;52.004;5.924;2023-05-15T00:06:00;9.20;;;8.20;;
9665;SDS011;4871;52.004;5.924;2023-05-15T00:07:00;9.20;;;8.20;;
9665;SDS011;4871;52.004;5.924;2023-05-15T00:08:00;9.20;;;8.20;;
9665;SDS011;4871;52.004;5.924;2023-05-15T00:09:00;9.20;;;8.20;;
9665;SDS011;4871;52.004;5.924;2023-05-15T00:10:00;9.20;;;8.20;;
9665;SDS011;4871;52.004;5.924;2023-05-15T00:11:00;11.90;;;9.60;;
9665;SDS011;4871;52.004;5.924;2023-05-15T00:12:00;11.90;;;9.60;;
9665;SDS011;4871;52.004;5.924;2023-05-15T00:13:00;11.90;;;9.60;;
9665;SDS011;4871;52.004;5.924;2023-05-15T00:14:00;11.90;;;9.60;;
9665;SDS011;4871;52.004;5.924;2023-05-15T00:15:00;11.90;;;9.60;;
9665;SDS011;4871;52.004;5.924;2023-05-15T00:16:00;11.90;;;9.60;;
9665;SDS011;4871;52.004;5.924;2023-05-15T00:17:00;11.90;;;9.60;;
9665;SDS011;4871;52.004;5.924;2023-05-15T00:18:00;11.90;;;9.60;;
9665;SDS011;4871;52.004;5.924;2023-05-15T00:19:00;11.90;;;9.60;;
9665;SDS011;4871;52.004;5.924;2023-05-15T00:20:00;11.90;;;9.60;;
9665;SDS011;4871;52.004;5.924;2023-05-15T00:21:00;11.90;;;9.60;;
9665;SDS011;4871;52.004;5.924;2023-05-15T00:22:00;11.90;;;9.60;;
9665;SDS011;4871;52.004;5.924;2023-05-15T00:23:00;11.90;;;9.60;;
9665;SDS011;4871;52.004;5.924;2023-05-15T00:24:00;11.90;;;9.60;;
9665;SDS011;4871;52.004;5.924;2023-05-15T00:25:00;11.90;;;9.60;;
9665;SDS011;4871;52.004;5.924;2023-05-15T00:26:00;11.90;;;9.60;;
9665;SDS011;4871;52.004;5.924;2023-05-15T00:27:00;11.90;;;9.60;;
9665;SDS011;4871;52.004;5.924;2023-05-15T00:28:00;11.90;;;9.60;;
9665;SDS011;4871;52.004;5.924;2023-05-15T00:29:00;11.90;;;9.60;;
9665;SDS011;4871;52.004;5.924;2023-05-15T00:30:00;11.90;;;9.60;;
9665;SDS011;4871;52.004;5.924;2023-05-15T00:31:00;11.90;;;9.60;;
9665;SDS011;4871;52.004;5.924;2023-05-15T00:32:00;11.90;;;9.60;;
9665;SDS011;4871;52.004;5.924;2023-05-15T00:33:00;11.90;;;9.60;;
9665;SDS011;4871;52.004;5.924;2023-05-15T00:34:00;11.90;;;9.60;;
9665;SDS011;4871;52.004;5.924;2023-05-15T00:35:00;11.90;;;9.60;;
9665;SDS011;4871;52.004;5.924;2023-05-15T00:36:00;11.90;;;9.60;;
9665;SDS011;4871;52.004;5.924;2023-05-15T00:37:00;11.90;;;9.60;;
9665;SDS011;4871;52.004;5.924;2023-05-15T00:38:00;11.90;;;9.60;;
9665;SDS011;4871;52.004;5.924;2023-05-15T00:39:00;11.90;;;9.60;;
9665;SDS011;4871;52.004;5.924;2023-05-15T00:40:00;11.90;;;9.60;;
9665;SDS011;4871;52.004;5.924;2023-05-15T00:41:00;10.60;;;8.60;;
9665;SDS011;4871;52.004;5.924;2023-05-15T00:42:00;10.60;;;8.60;;
9665;SDS011;4871;52.004;5.924;2023-05-15T00:43:00;10.60;;;8.60;;
9665;SDS011;4871;52.004;5.924;2023-05-15T00:44:00;10.60;;;8.60;;
9665;SDS011;4871;52.004;5.924;2023-05-15T00:45:01;10.60;;;8.60;;
9665;SDS011;4871;52.004;5.924;2023-05-15T00:46:00;10.60;;;8.60;;
9665;SDS011;4871;52.004;5.924;2023-05-15T00:47:00;10.60;;;8.60;;
9665;SDS011;4871;52.004;5.924;2023-05-15T00:48:00;10.60;;;8.60;;
9665;SDS011;4871;52.004;5.924;2023-05-15T00:49:00;10.60;;;8.60;;
9665;SDS011;4871;52.004;5.924;2023-05-15T00:50:00;10.60;;;8.60;;
9665;SDS011;4871;52.004;5.924;2023-05-15T00:51:00;10.60;;;8.60;;
9665;SDS011;4871;52.004;5.924;2023-05-15T00:52:02;10.60;;;8.60;;
9665;SDS011;4871;52.004;5.924;2023-05-15T00:53:00;10.60;;;8.60;;
9665;SDS011;4871;52.004;5.924;2023-05-15T00:54:00;10.60;;;8.60;;
9665;SDS011;4871;52.004;5.924;2023-05-15T00:55:00;10.60;;;8.60;;
9665;SDS011;4871;52.004;5.924;2023-05-15T00:56:00;10.60;;;8.60;;
9665;SDS011;4871;52.004;5.924;2023-05-15T00:57:00;10.60;;;8.60;;
9665;SDS011;4871;52.004;5.924;2023-05-15T00:58:00;10.60;;;8.60;;
9665;SDS011;4871;52.004;5.924;2023-05-15T00:59:00;10.60;;;8.60;;
9665;SDS011;4871;52.004;5.924;2023-05-15T01:00:00;10.60;;;8.60;;
9665;SDS011;4871;52.004;5.924;2023-05-15T01:01:00;10.60;;;8.60;;
9665;SDS011;4871;52.004;5.924;2023-05-15T01:02:00;10.60;;;8.60;;
9665;SDS011;4871;52.004;5.924;2023-05-15T01:03:00;10.60;;;8.60;;
9665;SDS011;4871;52.004;5.924;2023-05-15T01:04:01;10.60;;;8.60;;
9665;SDS011;4871;52.004;5.924;2023-05-15T01:05:00;10.60;;;8.60;;
9665;SDS011;4871;52.004;5.924;2023-05-15T01:06:00;10.60;;;8.60;;
9665;SDS011;4871;52.004;5.924;2023-05-15T01:07:00;10.60;;;8.60;;
9665;SDS011;4871;52.004;5.924;2023-05-15T01:08:03;10.60;;;8.60;;
9665;SDS011;4871;52.004;5.924;2023-05-15T01:09:02;10.60;;;8.60;;
9665;SDS011;4871;52.004;5.924;2023-05-15T01:10:00;10.60;;;8.60;;
9665;SDS011;4871;52.004;5.924;2023-05-15T01:11:00;8.70;;;7.80;;
9665;SDS011;4871;52.004;5.924;2023-05-15T01:12:01;8.70;;;7.80;;
9665;SDS011;4871;52.004;5.924;2023-05-15T01:13:00;8.70;;;7.80;;
9665;SDS011;4871;52.004;5.924;2023-05-15T01:14:01;8.70;;;7.80;;
9665;SDS011;4871;52.004;5.924;2023-05-15T01:15:00;8.70;;;7.80;;
9665;SDS011;4871;52.004;5.924;2023-05-15T01:16:00;8.70;;;7.80;;
9665;SDS011;4871;52.004;5.924;2023-05-15T01:17:00;8.70;;;7.80;;
9665;SDS011;4871;52.004;5.924;2023-05-15T01:18:00;8.70;;;7.80;;
9665;SDS011;4871;52.004;5.924;2023-05-15T01:19:00;8.70;;;7.80;;
9665;SDS011;4871;52.004;5.924;2023-05-15T01:20:00;8.70;;;7.80;;
9665;SDS011;4871;52.004;5.924;2023-05-15T01:21:05;8.70;;;7.80;;
9665;SDS011;4871;52.004;5.924;2023-05-15T01:22:13;8.70;;;7.80;;
9665;SDS011;4871;52.004;5.924;2023-05-15T01:23:05;8.70;;;7.80;;
9665;SDS011;4871;52.004;5.924;2023-05-15T01:24:03;8.70;;;7.80;;
9665;SDS011;4871;52.004;5.924;2023-05-15T01:26:06;8.70;;;7.80;;
9665;SDS011;4871;52.004;5.924;2023-05-15T01:27:04;8.70;;;7.80;;
9665;SDS011;4871;52.004;5.924;2023-05-15T01:28:01;8.70;;;7.80;;
9665;SDS011;4871;52.004;5.924;2023-05-15T01:29:01;8.70;;;7.80;;
9665;SDS011;4871;52.004;5.924;2023-05-15T01:30:02;8.70;;;7.80;;
9665;SDS011;4871;52.004;5.924;2023-05-15T01:31:01;8.70;;;7.80;;
9665;SDS011;4871;52.004;5.924;2023-05-15T01:32:01;8.70;;;7.80;;
9665;SDS011;4871;52.004;5.924;2023-05-15T01:33:02;8.70;;;7.80;;
9665;SDS011;4871;52.004;5.924;2023-05-15T01:34:01;8.70;;;7.80;;
9665;SDS011;4871;52.004;5.924;2023-05-15T01:35:02;8.70;;;7.80;;
9665;SDS011;4871;52.004;5.924;2023-05-15T01:36:02;8.70;;;7.80;;
9665;SDS011;4871;52.004;5.924;2023-05-15T01:37:01;8.70;;;7.80;;
9665;SDS011;4871;52.004;5.924;2023-05-15T01:38:05;8.70;;;7.80;;
9665;SDS011;4871;52.004;5.924;2023-05-15T01:39:01;8.70;;;7.80;;
9665;SDS011;4871;52.004;5.924;2023-05-15T01:40:01;8.70;;;7.80;;
9665;SDS011;4871;52.004;5.924;2023-05-15T01:41:01;10.70;;;8.90;;
9665;SDS011;4871;52.004;5.924;2023-05-15T01:42:01;10.70;;;8.90;;
9665;SDS011;4871;52.004;5.924;2023-05-15T01:43:02;10.70;;;8.90;;
9665;SDS011;4871;52.004;5.924;2023-05-15T01:44:01;10.70;;;8.90;;
9665;SDS011;4871;52.004;5.924;2023-05-15T01:45:00;10.70;;;8.90;;
9665;SDS011;4871;52.004;5.924;2023-05-15T01:46:00;10.70;;;8.90;;
9665;SDS011;4871;52.004;5.924;2023-05-15T01:47:00;10.70;;;8.90;;
9665;SDS011;4871;52.004;5.924;2023-05-15T01:48:00;10.70;;;8.90;;
9665;SDS011;4871;52.004;5.924;2023-05-15T01:49:00;10.70;;;8.90;;
9665;SDS011;4871;52.004;5.924;2023-05-15T01:50:00;10.70;;;8.90;;
9665;SDS011;4871;52.004;5.924;2023-05-15T01:51:00;10.70;;;8.90;;
9665;SDS011;4871;52.004;5.924;2023-05-15T01:52:01;10.70;;;8.90;;
9665;SDS011;4871;52.004;5.924;2023-05-15T01:53:00;10.70;;;8.90;;
9665;SDS011;4871;52.004;5.924;2023-05-15T01:54:00;10.70;;;8.90;;
9665;SDS011;4871;52.004;5.924;2023-05-15T01:55:00;10.70;;;8.90;;
9665;SDS011;4871;52.004;5.924;2023-05-15T01:56:00;10.70;;;8.90;;
9665;SDS011;4871;52.004;5.924;2023-05-15T01:57:00;10.70;;;8.90;;
9665;SDS011;4871;52.004;5.924;2023-05-15T01:58:00;10.70;;;8.90;;
9665;SDS011;4871;52.004;5.924;2023-05-15T01:59:00;10.70;;;8.90;;
9665;SDS011;4871;52.004;5.924;2023-05-15T02:00:00;10.70;;;8.90;;
9665;SDS011;4871;52.004;5.924;2023-05-15T02:01:00;10.70;;;8.90;;
9665;SDS011;4871;52.004;5.924;2023-05-15T02:02:00;10.70;;;8.90;;
9665;SDS011;4871;52.004;5.924;2023-05-15T02:03:00;10.70;;;8.90;;
9665;SDS011;4871;52.004;5.924;2023-05-15T02:04:00;10.70;;;8.90;;
9665;SDS011;4871;52.004;5.924;2023-05-15T02:05:01;10.70;;;8.90;;
9665;SDS011;4871;52.004;5.924;2023-05-15T02:06:00;10.70;;;8.90;;
9665;SDS011;4871;52.004;5.924;2023-05-15T02:07:00;10.70;;;8.90;;
9665;SDS011;4871;52.004;5.924;2023-05-15T02:08:00;10.70;;;8.90;;
9665;SDS011;4871;52.004;5.924;2023-05-15T02:09:01;10.70;;;8.90;;
9665;SDS011;4871;52.004;5.924;2023-05-15T02:10:01;10.70;;;8.90;;
9665;SDS011;4871;52.004;5.924;2023-05-15T02:11:00;11.40;;;9.60;;
9665;SDS011;4871;52.004;5.924;2023-05-15T02:12:00;11.40;;;9.60;;
9665;SDS011;4871;52.004;5.924;2023-05-15T02:13:00;11.40;;;9.60;;
9665;SDS011;4871;52.004;5.924;2023-05-15T02:14:00;11.40;;;9.60;;
9665;SDS011;4871;52.004;5.924;2023-05-15T02:15:00;11.40;;;9.60;;
9665;SDS011;4871;52.004;5.924;2023-05-15T02:16:00;11.40;;;9.60;;
9665;SDS011;4871;52.004;5.924;2023-05-15T02:17:00;11.40;;;9.60;;
9665;SDS011;4871;52.004;5.924;2023-05-15T02:18:00;11.40;;;9.60;;
9665;SDS011;4871;52.004;5.924;2023-05-15T02:19:00;11.40;;;9.60;;
9665;SDS011;4871;52.004;5.924;2023-05-15T02:20:00;11.40;;;9.60;;
9665;SDS011;4871;52.004;5.924;2023-05-15T02:21:01;11.40;;;9.60;;
9665;SDS011;4871;52.004;5.924;2023-05-15T02:22:00;11.40;;;9.60;;
9665;SDS011;4871;52.004;5.924;2023-05-15T02:23:00;11.40;;;9.60;;
9665;SDS011;4871;52.004;5.924;2023-05-15T02:24:00;11.40;;;9.60;;
9665;SDS011;4871;52.004;5.924;2023-05-15T02:25:01;11.40;;;9.60;;
9665;SDS011;4871;52.004;5.924;2023-05-15T02:26:05;11.40;;;9.60;;
9665;SDS011;4871;52.004;5.924;2023-05-15T02:27:01;11.40;;;9.60;;
9665;SDS011;4871;52.004;5.924;2023-05-15T02:28:01;11.40;;;9.60;;
9665;SDS011;4871;52.004;5.924;2023-05-15T02:29:03;11.40;;;9.60;;
9665;SDS011;4871;52.004;5.924;2023-05-15T02:30:05;11.40;;;9.60;;
9665;SDS011;4871;52.004;5.924;2023-05-15T02:31:03;11.40;;;9.60;;
9665;SDS011;4871;52.004;5.924;2023-05-15T02:32:02;11.40;;;9.60;;
9665;SDS011;4871;52.004;5.924;2023-05-15T02:33:03;11.40;;;9.60;;
9665;SDS011;4871;52.004;5.924;2023-05-15T02:34:02;11.40;;;9.60;;
9665;SDS011;4871;52.004;5.924;2023-05-15T02:35:02;11.40;;;9.60;;
9665;SDS011;4871;52.004;5.924;2023-05-15T02:36:01;11.40;;;9.60;;
9665;SDS011;4871;52.004;5.924;2023-05-15T02:37:00;11.40;;;9.60;;
9665;SDS011;4871;52.004;5.924;2023-05-15T02:38:07;11.40;;;9.60;;
9665;SDS011;4871;52.004;5.924;2023-05-15T02:39:00;11.40;;;9.60;;
9665;SDS011;4871;52.004;5.924;2023-05-15T02:40:01;11.40;;;9.60;;
9665;SDS011;4871;52.004;5.924;2023-05-15T02:41:00;11.40;;;9.70;;
9665;SDS011;4871;52.004;5.924;2023-05-15T02:42:00;11.40;;;9.70;;
9665;SDS011;4871;52.004;5.924;2023-05-15T02:43:00;11.40;;;9.70;;
9665;SDS011;4871;52.004;5.924;2023-05-15T02:44:00;11.40;;;9.70;;
9665;SDS011;4871;52.004;5.924;2023-05-15T02:45:00;11.40;;;9.70;;
9665;SDS011;4871;52.004;5.924;2023-05-15T02:46:00;11.40;;;9.70;;
9665;SDS011;4871;52.004;5.924;2023-05-15T02:47:00;11.40;;;9.70;;
9665;SDS011;4871;52.004;5.924;2023-05-15T02:48:00;11.40;;;9.70;;
9665;SDS011;4871;52.004;5.924;2023-05-15T02:49:00;11.40;;;9.70;;
9665;SDS011;4871;52.004;5.924;2023-05-15T02:50:00;11.40;;;9.70;;
9665;SDS011;4871;52.004;5.924;2023-05-15T02:51:00;11.40;;;9.70;;
9665;SDS011;4871;52.004;5.924;2023-05-15T02:52:00;11.40;;;9.70;;
9665;SDS011;4871;52.004;5.924;2023-05-15T02:53:00;11.40;;;9.70;;
9665;SDS011;4871;52.004;5.924;2023-05-15T02:54:00;11.40;;;9.70;;
9665;SDS011;4871;52.004;5.924;2023-05-15T02:55:00;11.40;;;9.70;;
9665;SDS011;4871;52.004;5.924;2023-05-15T02:56:01;11.40;;;9.70;;
9665;SDS011;4871;52.004;5.924;2023-05-15T02:57:00;11.40;;;9.70;;
9665;SDS011;4871;52.004;5.924;2023-05-15T02:58:00;11.40;;;9.70;;
9665;SDS011;4871;52.004;5.924;2023-05-15T02:59:00;11.40;;;9.70;;
9665;SDS011;4871;52.004;5.924;2023-05-15T03:00:00;11.40;;;9.70;;
9665;SDS011;4871;52.004;5.924;2023-05-15T03:01:00;11.40;;;9.70;;
9665;SDS011;4871;52.004;5.924;2023-05-15T03:02:02;11.40;;;9.70;;
9665;SDS011;4871;52.004;5.924;2023-05-15T03:03:00;11.40;;;9.70;;
9665;SDS011;4871;52.004;5.924;2023-05-15T03:04:00;11.40;;;9.70;;
9665;SDS011;4871;52.004;5.924;2023-05-15T03:05:00;11.40;;;9.70;;
9665;SDS011;4871;52.004;5.924;2023-05-15T03:06:00;11.40;;;9.70;;
9665;SDS011;4871;52.004;5.924;2023-05-15T03:07:00;11.40;;;9.70;;
9665;SDS011;4871;52.004;5.924;2023-05-15T03:08:00;11.40;;;9.70;;
9665;SDS011;4871;52.004;5.924;2023-05-15T03:09:00;11.40;;;9.70;;
9665;SDS011;4871;52.004;5.924;2023-05-15T03:10:00;11.40;;;9.70;;
9665;SDS011;4871;52.004;5.924;2023-05-15T03:11:00;11.90;;;10.20;;
9665;SDS011;4871;52.004;5.924;2023-05-15T03:12:00;11.90;;;10.20;;
9665;SDS011;4871;52.004;5.924;2023-05-15T03:13:01;11.90;;;10.20;;
9665;SDS011;4871;52.004;5.924;2023-05-15T03:14:00;11.90;;;10.20;;
9665;SDS011;4871;52.004;5.924;2023-05-15T03:15:00;11.90;;;10.20;;
9665;SDS011;4871;52.004;5.924;2023-05-15T03:16:00;11.90;;;10.20;;
9665;SDS011;4871;52.004;5.924;2023-05-15T03:17:00;11.90;;;10.20;;
9665;SDS011;4871;52.004;5.924;2023-05-15T03:18:00;11.90;;;10.20;;
9665;SDS011;4871;52.004;5.924;2023-05-15T03:19:00;11.90;;;10.20;;
9665;SDS011;4871;52.004;5.924;2023-05-15T03:20:00;11.90;;;10.20;;
9665;SDS011;4871;52.004;5.924;2023-05-15T03:21:00;11.90;;;10.20;;
9665;SDS011;4871;52.004;5.924;2023-05-15T03:22:00;11.90;;;10.20;;
9665;SDS011;4871;52.004;5.924;2023-05-15T03:23:00;11.90;;;10.20;;
9665;SDS011;4871;52.004;5.924;2023-05-15T03:24:00;11.90;;;10.20;;
9665;SDS011;4871;52.004;5.924;2023-05-15T03:25:00;11.90;;;10.20;;
9665;SDS011;4871;52.004;5.924;2023-05-15T03:26:00;11.90;;;10.20;;
9665;SDS011;4871;52.004;5.924;2023-05-15T03:27:00;11.90;;;10.20;;
9665;SDS011;4871;52.004;5.924;2023-05-15T03:28:00;11.90;;;10.20;;
9665;SDS011;4871;52.004;5.924;2023-05-15T03:29:01;11.90;;;10.20;;
9665;SDS011;4871;52.004;5.924;2023-05-15T03:30:00;11.90;;;10.20;;
9665;SDS011;4871;52.004;5.924;2023-05-15T03:31:00;11.90;;;10.20;;
9665;SDS011;4871;52.004;5.924;2023-05-15T03:32:00;11.90;;;10.20;;
9665;SDS011;4871;52.004;5.924;2023-05-15T03:33:02;11.90;;;10.20;;
9665;SDS011;4871;52.004;5.924;2023-05-15T03:34:00;11.90;;;10.20;;
9665;SDS011;4871;52.004;5.924;2023-05-15T03:35:00;11.90;;;10.20;;
9665;SDS011;4871;52.004;5.924;2023-05-15T03:36:00;11.90;;;10.20;;
9665;SDS011;4871;52.004;5.924;2023-05-15T03:37:00;11.90;;;10.20;;
9665;SDS011;4871;52.004;5.924;2023-05-15T03:38:00;11.90;;;10.20;;
9665;SDS011;4871;52.004;5.924;2023-05-15T03:39:00;11.90;;;10.20;;
9665;SDS011;4871;52.004;5.924;2023-05-15T03:40:00;11.90;;;10.20;;
9665;SDS011;4871;52.004;5.924;2023-05-15T03:41:00;13.20;;;11.00;;
9665;SDS011;4871;52.004;5.924;2023-05-15T03:42:00;13.20;;;11.00;;
9665;SDS011;4871;52.004;5.924;2023-05-15T03:43:00;13.20;;;11.00;;
9665;SDS011;4871;52.004;5.924;2023-05-15T03:44:00;13.20;;;11.00;;
9665;SDS011;4871;52.004;5.924;2023-05-15T03:45:00;13.20;;;11.00;;
9665;SDS011;4871;52.004;5.924;2023-05-15T03:46:00;13.20;;;11.00;;
9665;SDS011;4871;52.004;5.924;2023-05-15T03:47:00;13.20;;;11.00;;
9665;SDS011;4871;52.004;5.924;2023-05-15T03:48:00;13.20;;;11.00;;
9665;SDS011;4871;52.004;5.924;2023-05-15T03:49:00;13.20;;;11.00;;
9665;SDS011;4871;52.004;5.924;2023-05-15T03:50:00;13.20;;;11.00;;
9665;SDS011;4871;52.004;5.924;2023-05-15T03:51:00;13.20;;;11.00;;
9665;SDS011;4871;52.004;5.924;2023-05-15T03:52:00;13.20;;;11.00;;
9665;SDS011;4871;52.004;5.924;2023-05-15T03:53:00;13.20;;;11.00;;
9665;SDS011;4871;52.004;5.924;2023-05-15T03:54:00;13.20;;;11.00;;
9665;SDS011;4871;52.004;5.924;2023-05-15T03:55:00;13.20;;;11.00;;
9665;SDS011;4871;52.004;5.924;2023-05-15T03:56:00;13.20;;;11.00;;
9665;SDS011;4871;52.004;5.924;2023-05-15T03:57:00;13.20;;;11.00;;
9665;SDS011;4871;52.004;5.924;2023-05-15T03:58:00;13.20;;;11.00;;
9665;SDS011;4871;52.004;5.924;2023-05-15T03:59:00;13.20;;;11.00;;
9665;SDS011;4871;52.004;5.924;2023-05-15T04:00:03;13.20;;;11.00;;
9665;SDS011;4871;52.004;5.924;2023-05-15T04:01:00;13.20;;;11.00;;
9665;SDS011;4871;52.004;5.924;2023-05-15T04:02:00;13.20;;;11.00;;
9665;SDS011;4871;52.004;5.924;2023-05-15T04:03:00;13.20;;;11.00;;
9665;SDS011;4871;52.004;5.924;2023-05-15T04:04:00;13.20;;;11.00;;
9665;SDS011;4871;52.004;5.924;2023-05-15T04:05:00;13.20;;;11.00;;
9665;SDS011;4871;52.004;5.924;2023-05-15T04:06:00;13.20;;;11.00;;
9665;SDS011;4871;52.004;5.924;2023-05-15T04:07:00;13.20;;;11.00;;
9665;SDS011;4871;52.004;5.924;2023-05-15T04:08:00;13.20;;;11.00;;
9665;SDS011;4871;52.004;5.924;2023-05-15T04:09:00;13.20;;;11.00;;
9665;SDS011;4871;52.004;5.924;2023-05-15T04:10:00;13.20;;;11.00;;
9665;SDS011;4871;52.004;5.924;2023-05-15T04:11:00;13.20;;;11.40;;
9665;SDS011;4871;52.004;5.924;2023-05-15T04:12:00;13.20;;;11.40;;
9665;SDS011;4871;52.004;5.924;2023-05-15T04:13:00;13.20;;;11.40;;
9665;SDS011;4871;52.004;5.924;2023-05-15T04:14:00;13.20;;;11.40;;
9665;SDS011;4871;52.004;5.924;2023-05-15T04:15:12;13.20;;;11.40;;
9665;SDS011;4871;52.004;5.924;2023-05-15T04:16:01;13.20;;;11.40;;
9665;SDS011;4871;52.004;5.924;2023-05-15T04:17:00;13.20;;;11.40;;
9665;SDS011;4871;52.004;5.924;2023-05-15T04:18:00;13.20;;;11.40;;
9665;SDS011;4871;52.004;5.924;2023-05-15T04:19:00;13.20;;;11.40;;
9665;SDS011;4871;52.004;5.924;2023-05-15T04:20:00;13.20;;;11.40;;
9665;SDS011;4871;52.004;5.924;2023-05-15T04:21:00;13.20;;;11.40;;
9665;SDS011;4871;52.004;5.924;2023-05-15T04:22:00;13.20;;;11.40;;
9665;SDS011;4871;52.004;5.924;2023-05-15T04:23:01;13.20;;;11.40;;
9665;SDS011;4871;52.004;5.924;2023-05-15T04:24:00;13.20;;;11.40;;
9665;SDS011;4871;52.004;5.924;2023-05-15T04:25:00;13.20;;;11.40;;
9665;SDS011;4871;52.004;5.924;2023-05-15T04:26:00;13.20;;;11.40;;
9665;SDS011;4871;52.004;5.924;2023-05-15T04:27:00;13.20;;;11.40;;
9665;SDS011;4871;52.004;5.924;2023-05-15T04:28:00;13.20;;;11.40;;
9665;SDS011;4871;52.004;5.924;2023-05-15T04:29:00;13.20;;;11.40;;
9665;SDS011;4871;52.004;5.924;2023-05-15T04:30:00;13.20;;;11.40;;
9665;SDS011;4871;52.004;5.924;2023-05-15T04:31:00;13.20;;;11.40;;
9665;SDS011;4871;52.004;5.924;2023-05-15T04:32:01;13.20;;;11.40;;
9665;SDS011;4871;52.004;5.924;2023-05-15T04:33:00;13.20;;;11.40;;
9665;SDS011;4871;52.004;5.924;2023-05-15T04:34:00;13.20;;;11.40;;
9665;SDS011;4871;52.004;5.924;2023-05-15T04:35:00;13.20;;;11.40;;
9665;SDS011;4871;52.004;5.924;2023-05-15T04:36:00;13.20;;;11.40;;
9665;SDS011;4871;52.004;5.924;2023-05-15T04:37:00;13.20;;;11.40;;
9665;SDS011;4871;52.004;5.924;2023-05-15T04:38:00;13.20;;;11.40;;
9665;SDS011;4871;52.004;5.924;2023-05-15T04:39:00;13.20;;;11.40;;
9665;SDS011;4871;52.004;5.924;2023-05-15T04:40:00;13.20;;;11.40;;
9665;SDS011;4871;52.004;5.924;2023-05-15T04:41:00;15.20;;;12.80;;
9665;SDS011;4871;52.004;5.924;2023-05-15T04:42:01;15.20;;;12.80;;
9665;SDS011;4871;52.004;5.924;2023-05-15T04:43:02;15.20;;;12.80;;
9665;SDS011;4871;52.004;5.924;2023-05-15T04:44:00;15.20;;;12.80;;
9665;SDS011;4871;52.004;5.924;2023-05-15T04:45:00;15.20;;;12.80;;
9665;SDS011;4871;52.004;5.924;2023-05-15T04:46:00;15.20;;;12.80;;
9665;SDS011;4871;52.004;5.924;2023-05-15T04:47:00;15.20;;;12.80;;
9665;SDS011;4871;52.004;5.924;2023-05-15T04:48:00;15.20;;;12.80;;
9665;SDS011;4871;52.004;5.924;2023-05-15T04:49:00;15.20;;;12.80;;
9665;SDS011;4871;52.004;5.924;2023-05-15T04:50:00;15.20;;;12.80;;
9665;SDS011;4871;52.004;5.924;2023-05-15T04:51:00;15.20;;;12.80;;
9665;SDS011;4871;52.004;5.924;2023-05-15T04:52:00;15.20;;;12.80;;
9665;SDS011;4871;52.004;5.924;2023-05-15T04:53:00;15.20;;;12.80;;
9665;SDS011;4871;52.004;5.924;2023-05-15T04:54:00;15.20;;;12.80;;
9665;SDS011;4871;52.004;5.924;2023-05-15T04:55:00;15.20;;;12.80;;
9665;SDS011;4871;52.004;5.924;2023-05-15T04:56:00;15.20;;;12.80;;
9665;SDS011;4871;52.004;5.924;2023-05-15T04:57:00;15.20;;;12.80;;
9665;SDS011;4871;52.004;5.924;2023-05-15T04:58:00;15.20;;;12.80;;
9665;SDS011;4871;52.004;5.924;2023-05-15T04:59:00;15.20;;;12.80;;
9665;SDS011;4871;52.004;5.924;2023-05-15T05:00:00;15.20;;;12.80;;
9665;SDS011;4871;52.004;5.924;2023-05-15T05:01:00;15.20;;;12.80;;
9665;SDS011;4871;52.004;5.924;2023-05-15T05:02:00;15.20;;;12.80;;
9665;SDS011;4871;52.004;5.924;2023-05-15T05:03:00;15.20;;;12.80;;
9665;SDS011;4871;52.004;5.924;2023-05-15T05:04:00;15.20;;;12.80;;
9665;SDS011;4871;52.004;5.924;2023-05-15T05:05:00;15.20;;;12.80;;
9665;SDS011;4871;52.004;5.924;2023-05-15T05:06:00;15.20;;;12.80;;
9665;SDS011;4871;52.004;5.924;2023-05-15T05:07:03;15.20;;;12.80;;
9665;SDS011;4871;52.004;5.924;2023-05-15T05:08:00;15.20;;;12.80;;
9665;SDS011;4871;52.004;5.924;2023-05-15T05:09:00;15.20;;;12.80;;
9665;SDS011;4871;52.004;5.924;2023-05-15T05:10:00;15.20;;;12.80;;
9665;SDS011;4871;52.004;5.924;2023-05-15T05:11:00;16.30;;;13.00;;
9665;SDS011;4871;52.004;5.924;2023-05-15T05:12:01;16.30;;;13.00;;
9665;SDS011;4871;52.004;5.924;2023-05-15T05:13:00;16.30;;;13.00;;
9665;SDS011;4871;52.004;5.924;2023-05-15T05:14:00;16.30;;;13.00;;
9665;SDS011;4871;52.004;5.924;2023-05-15T05:15:00;16.30;;;13.00;;
9665;SDS011;4871;52.004;5.924;2023-05-15T05:16:00;16.30;;;13.00;;
9665;SDS011;4871;52.004;5.924;2023-05-15T05:17:00;16.30;;;13.00;;
9665;SDS011;4871;52.004;5.924;2023-05-15T05:18:00;16.30;;;13.00;;
9665;SDS011;4871;52.004;5.924;2023-05-15T05:19:00;16.30;;;13.00;;
9665;SDS011;4871;52.004;5.924;2023-05-15T05:20:00;16.30;;;13.00;;
9665;SDS011;4871;52.004;5.924;2023-05-15T05:21:00;16.30;;;13.00;;
9665;SDS011;4871;52.004;5.924;2023-05-15T05:22:03;16.30;;;13.00;;
9665;SDS011;4871;52.004;5.924;2023-05-15T05:23:00;16.30;;;13.00;;
9665;SDS011;4871;52.004;5.924;2023-05-15T05:24:00;16.30;;;13.00;;
9665;SDS011;4871;52.004;5.924;2023-05-15T05:25:00;16.30;;;13.00;;
9665;SDS011;4871;52.004;5.924;2023-05-15T05:26:00;16.30;;;13.00;;
9665;SDS011;4871;52.004;5.924;2023-05-15T05:27:00;16.30;;;13.00;;
9665;SDS011;4871;52.004;5.924;2023-05-15T05:28:00;16.30;;;13.00;;
9665;SDS011;4871;52.004;5.924;2023-05-15T05:29:00;16.30;;;13.00;;
9665;SDS011;4871;52.004;5.924;2023-05-15T05:30:00;16.30;;;13.00;;
9665;SDS011;4871;52.004;5.924;2023-05-15T05:31:01;16.30;;;13.00;;
9665;SDS011;4871;52.004;5.924;2023-05-15T05:32:00;16.30;;;13.00;;
9665;SDS011;4871;52.004;5.924;2023-05-15T05:33:00;16.30;;;13.00;;
9665;SDS011;4871;52.004;5.924;2023-05-15T05:34:00;16.30;;;13.00;;
9665;SDS011;4871;52.004;5.924;2023-05-15T05:35:00;16.30;;;13.00;;
9665;SDS011;4871;52.004;5.924;2023-05-15T05:36:00;16.30;;;13.00;;
9665;SDS011;4871;52.004;5.924;2023-05-15T05:37:00;16.30;;;13.00;;
9665;SDS011;4871;52.004;5.924;2023-05-15T05:38:00;16.30;;;13.00;;
9665;SDS011;4871;52.004;5.924;2023-05-15T05:39:00;16.30;;;13.00;;
9665;SDS011;4871;52.004;5.924;2023-05-15T05:40:00;16.30;;;13.00;;
9665;SDS011;4871;52.004;5.924;2023-05-15T05:41:00;18.90;;;14.40;;
9665;SDS011;4871;52.004;5.924;2023-05-15T05:42:00;18.90;;;14.40;;
9665;SDS011;4871;52.004;5.924;2023-05-15T05:43:00;18.90;;;14.40;;
9665;SDS011;4871;52.004;5.924;2023-05-15T05:44:00;18.90;;;14.40;;
9665;SDS011;4871;52.004;5.924;2023-05-15T05:45:00;18.90;;;14.40;;
9665;SDS011;4871;52.004;5.924;2023-05-15T05:46:00;18.90;;;14.40;;
9665;SDS011;4871;52.004;5.924;2023-05-15T05:47:00;18.90;;;14.40;;
9665;SDS011;4871;52.004;5.924;2023-05-15T05:48:00;18.90;;;14.40;;
9665;SDS011;4871;52.004;5.924;2023-05-15T05:49:00;18.90;;;14.40;;
9665;SDS011;4871;52.004;5.924;2023-05-15T05:50:00;18.90;;;14.40;;
9665;SDS011;4871;52.004;5.924;2023-05-15T05:51:00;18.90;;;14.40;;
9665;SDS011;4871;52.004;5.924;2023-05-15T05:52:04;18.90;;;14.40;;
9665;SDS011;4871;52.004;5.924;2023-05-15T05:53:00;18.90;;;14.40;;
9665;SDS011;4871;52.004;5.924;2023-05-15T05:54:00;18.90;;;14.40;;
9665;SDS011;4871;52.004;5.924;2023-05-15T05:55:00;18.90;;;14.40;;
9665;SDS011;4871;52.004;5.924;2023-05-15T05:56:00;18.90;;;14.40;;
9665;SDS011;4871;52.004;5.924;2023-05-15T05:57:00;18.90;;;14.40;;
9665;SDS011;4871;52.004;5.924;2023-05-15T05:58:00;18.90;;;14.40;;
9665;SDS011;4871;52.004;5.924;2023-05-15T05:59:00;18.90;;;14.40;;
9665;SDS011;4871;52.004;5.924;2023-05-15T06:00:00;18.90;;;14.40;;
9665;SDS011;4871;52.004;5.924;2023-05-15T06:01:00;18.90;;;14.40;;
9665;SDS011;4871;52.004;5.924;2023-05-15T06:02:00;18.90;;;14.40;;
9665;SDS011;4871;52.004;5.924;2023-05-15T06:03:00;18.90;;;14.40;;
9665;SDS011;4871;52.004;5.924;2023-05-15T06:04:00;18.90;;;14.40;;
9665;SDS011;4871;52.004;5.924;2023-05-15T06:05:00;18.90;;;14.40;;